createdAt,value
2019-05-01T00:01:01.929Z,9.20
2019-05-01T00:03:41.164Z,9.10
2019-05-01T00:06:11.989Z,9.10
2019-05-01T00:08:41.003Z,9.10
2019-05-01T00:11:10.176Z,9.20
2019-05-01T00:13:40.334Z,9.20
2019-05-01T00:16:09.184Z,9.10
2019-05-01T00:18:43.609Z,8.90
2019-05-01T00:21:12.408Z,8.90
2019-05-01T00:23:41.115Z,9.00
2019-05-01T00:26:10.045Z,9.20
2019-05-01T00:28:39.116Z,9.40
2019-05-01T00:31:08.912Z,9.70
2019-05-01T00:33:39.625Z,9.80
2019-05-01T00:36:12.362Z,10.00
2019-05-01T00:38:41.146Z,10.00
2019-05-01T00:41:11.920Z,10.20
2019-05-01T00:43:40.640Z,10.30
2019-05-01T00:46:16.286Z,10.30
2019-05-01T00:48:44.974Z,10.10
2019-05-01T00:51:13.832Z,10.00
2019-05-01T00:53:42.680Z,10.10
2019-05-01T00:56:18.827Z,10.00
2019-05-01T00:58:51.689Z,9.70
2019-05-01T01:01:30.871Z,9.80
2019-05-01T01:03:59.552Z,9.90
2019-05-01T01:06:28.247Z,10.10
2019-05-01T01:09:00.458Z,10.30
2019-05-01T01:11:29.217Z,10.10
2019-05-01T01:13:59.005Z,10.10
2019-05-01T01:16:27.745Z,9.80
2019-05-01T01:18:56.656Z,9.60
2019-05-01T01:21:25.365Z,9.30
2019-05-01T01:23:54.219Z,9.40
2019-05-01T01:26:24.013Z,9.60
2019-05-01T01:28:53.352Z,9.70
2019-05-01T01:31:41.701Z,9.70
2019-05-01T01:34:10.809Z,9.70
2019-05-01T01:36:39.528Z,9.20
2019-05-01T01:39:09.086Z,9.10
2019-05-01T01:41:37.832Z,9.30
2019-05-01T01:44:11.485Z,9.40
2019-05-01T01:46:44.960Z,9.40
2019-05-01T01:49:15.060Z,9.30
2019-05-01T01:51:47.216Z,9.40
2019-05-01T01:54:16.401Z,9.10
2019-05-01T01:56:45.167Z,9.00
2019-05-01T01:59:14.306Z,8.80
2019-05-01T02:02:02.722Z,8.40
2019-05-01T02:04:52.377Z,8.30
2019-05-01T02:07:21.251Z,8.20
2019-05-01T02:09:50.033Z,8.00
2019-05-01T02:12:19.595Z,8.00
2019-05-01T02:14:48.376Z,8.10
2019-05-01T02:17:17.066Z,8.10
2019-05-01T02:19:45.813Z,8.10
2019-05-01T02:22:14.570Z,7.70
2019-05-01T02:24:43.512Z,7.50
2019-05-01T02:27:20.673Z,7.60
2019-05-01T02:29:54.771Z,7.70
2019-05-01T02:32:27.756Z,7.60
2019-05-01T02:34:58.178Z,7.50
2019-05-01T02:37:29.278Z,7.60
2019-05-01T02:40:01.652Z,7.50
2019-05-01T02:42:42.841Z,7.60
2019-05-01T02:45:15.290Z,7.60
2019-05-01T02:47:48.546Z,7.50
2019-05-01T02:50:18.616Z,7.20
2019-05-01T02:52:47.494Z,7.00
2019-05-01T02:55:21.135Z,7.00
2019-05-01T02:57:56.712Z,7.00
2019-05-01T03:00:26.606Z,7.00
2019-05-01T03:03:02.659Z,7.10
2019-05-01T03:05:31.829Z,7.20
2019-05-01T03:08:06.580Z,7.20
2019-05-01T03:10:39.384Z,7.20
2019-05-01T03:13:08.198Z,6.90
2019-05-01T03:15:37.425Z,6.80
2019-05-01T03:18:17.132Z,6.90
2019-05-01T03:20:47.556Z,6.80
2019-05-01T03:23:20.091Z,6.80
2019-05-01T03:25:49.236Z,6.80
2019-05-01T03:28:18.730Z,6.60
2019-05-01T03:30:50.505Z,6.30
2019-05-01T03:33:18.373Z,6.30
2019-05-01T03:35:47.168Z,6.40
2019-05-01T03:38:16.940Z,6.40
2019-05-01T03:40:47.332Z,6.30
2019-05-01T03:43:18.391Z,6.00
2019-05-01T03:45:50.567Z,5.90
2019-05-01T03:48:21.353Z,5.80
2019-05-01T03:50:50.177Z,5.80
2019-05-01T03:53:19.377Z,5.90
2019-05-01T03:55:48.197Z,6.10
2019-05-01T03:58:17.217Z,6.20
2019-05-01T04:00:58.389Z,6.30
2019-05-01T04:03:36.507Z,6.30
2019-05-01T04:06:05.406Z,6.30
2019-05-01T04:08:34.117Z,6.40
2019-05-01T04:11:02.791Z,6.40
2019-05-01T04:13:37.448Z,6.00
2019-05-01T04:16:06.601Z,5.90
2019-05-01T04:18:35.732Z,5.90
2019-05-01T04:21:04.744Z,5.80
2019-05-01T04:23:33.725Z,5.60
2019-05-01T04:26:04.746Z,5.70
2019-05-01T04:28:50.355Z,5.80
2019-05-01T04:31:23.537Z,5.70
2019-05-01T04:34:03.680Z,5.80
2019-05-01T04:36:36.995Z,5.70
2019-05-01T04:39:07.529Z,5.60
2019-05-01T04:41:37.056Z,5.60
2019-05-01T04:44:06.728Z,5.60
2019-05-01T04:46:36.254Z,5.50
2019-05-01T04:49:08.168Z,5.50
2019-05-01T04:51:38.022Z,5.80
2019-05-01T04:54:06.762Z,5.90
2019-05-01T04:56:35.588Z,5.90
2019-05-01T04:59:04.840Z,6.10
2019-05-01T05:01:52.824Z,6.50
2019-05-01T05:04:25.294Z,6.70
2019-05-01T05:06:54.671Z,7.00
2019-05-01T05:09:41.034Z,7.20
2019-05-01T05:12:11.598Z,7.40
2019-05-01T05:14:45.239Z,8.20
2019-05-01T05:17:18.437Z,9.10
2019-05-01T05:19:49.975Z,9.20
2019-05-01T05:22:23.530Z,9.00
2019-05-01T05:24:54.634Z,9.00
2019-05-01T05:27:26.740Z,9.20
2019-05-01T05:29:57.430Z,9.40
2019-05-01T05:32:29.903Z,9.70
2019-05-01T05:35:11.816Z,10.80
2019-05-01T05:37:56.644Z,11.80
2019-05-01T05:40:30.718Z,12.10
2019-05-01T05:43:08.643Z,12.80
2019-05-01T05:45:43.889Z,13.70
2019-05-01T05:48:18.679Z,14.40
2019-05-01T05:51:12.303Z,15.80
2019-05-01T05:53:45.864Z,15.30
2019-05-01T05:56:19.015Z,15.30
2019-05-01T05:59:01.867Z,15.60
2019-05-01T06:01:52.143Z,15.60
2019-05-01T06:04:28.612Z,15.10
2019-05-01T06:07:03.968Z,15.00
2019-05-01T06:09:37.341Z,14.80
2019-05-01T06:12:18.272Z,14.70
2019-05-01T06:14:54.409Z,15.00
2019-05-01T06:17:41.222Z,15.50
2019-05-01T06:20:20.730Z,15.70
2019-05-01T06:23:04.667Z,16.90
2019-05-01T06:25:37.873Z,17.60
2019-05-01T06:28:06.655Z,18.20
2019-05-01T06:30:36.026Z,18.20
2019-05-01T06:33:11.310Z,18.10
2019-05-01T06:35:40.792Z,17.20
2019-05-01T06:38:17.596Z,16.20
2019-05-01T06:40:48.506Z,17.30
2019-05-01T06:43:30.275Z,17.70
2019-05-01T06:46:13.120Z,18.90
2019-05-01T06:48:52.997Z,20.90
2019-05-01T06:51:34.302Z,21.80
2019-05-01T06:54:11.195Z,20.30
2019-05-01T06:56:41.020Z,19.70
2019-05-01T06:59:13.296Z,20.70
2019-05-01T07:01:45.291Z,19.60
2019-05-01T07:04:17.795Z,18.30
2019-05-01T07:06:49.921Z,17.50
2019-05-01T07:09:27.780Z,18.40
2019-05-01T07:11:52.685Z,18.30
2019-05-01T07:14:21.619Z,17.60
2019-05-01T07:16:50.872Z,17.10
2019-05-01T07:19:23.481Z,17.40
2019-05-01T07:21:55.382Z,17.90
2019-05-01T07:24:27.992Z,17.20
2019-05-01T07:27:04.103Z,17.00
2019-05-01T07:29:35.154Z,17.20
2019-05-01T07:32:06.320Z,17.50
2019-05-01T07:34:42.097Z,18.80
2019-05-01T07:37:13.464Z,21.40
2019-05-01T07:39:53.172Z,21.10
2019-05-01T07:42:28.829Z,21.00
2019-05-01T07:45:12.445Z,18.60
2019-05-01T07:48:01.109Z,17.90
2019-05-01T07:50:33.728Z,20.30
2019-05-01T07:53:03.539Z,17.70
2019-05-01T07:55:38.444Z,18.50
2019-05-01T07:58:16.062Z,19.70
2019-05-01T08:00:55.200Z,19.40
2019-05-01T08:03:23.993Z,19.60
2019-05-01T08:05:52.679Z,19.50
2019-05-01T08:08:21.378Z,19.50
2019-05-01T08:10:54.831Z,16.00
2019-05-01T08:13:23.551Z,15.90
2019-05-01T08:15:55.676Z,18.10
2019-05-01T08:18:31.901Z,19.20
2019-05-01T08:21:10.190Z,19.80
2019-05-01T08:23:42.682Z,18.80
2019-05-01T08:26:15.619Z,20.40
2019-05-01T08:29:06.950Z,20.00
2019-05-01T08:31:58.796Z,19.20
2019-05-01T08:34:48.697Z,16.40
2019-05-01T08:37:09.233Z,16.00
2019-05-01T08:39:52.260Z,17.00
2019-05-01T08:42:29.611Z,18.80
2019-05-01T08:45:10.273Z,20.50
2019-05-01T08:48:01.766Z,21.30
2019-05-01T08:50:33.389Z,19.10
2019-05-01T08:53:01.997Z,19.10
2019-05-01T08:55:31.929Z,20.70
2019-05-01T08:58:03.741Z,18.40
2019-05-01T09:00:41.195Z,17.20
2019-05-01T09:03:20.615Z,17.30
2019-05-01T09:05:52.348Z,16.60
2019-05-01T09:08:32.091Z,17.40
2019-05-01T09:11:17.890Z,18.60
2019-05-01T09:13:46.579Z,18.80
2019-05-01T09:16:23.438Z,18.50
2019-05-01T09:18:56.093Z,19.20
2019-05-01T09:21:25.420Z,19.70
2019-05-01T09:24:03.552Z,18.80
2019-05-01T09:26:50.227Z,18.80
2019-05-01T09:29:25.180Z,19.10
2019-05-01T09:32:05.116Z,19.20
2019-05-01T09:34:38.034Z,19.40
2019-05-01T09:37:12.652Z,20.20
2019-05-01T09:39:47.166Z,21.80
2019-05-01T09:42:23.814Z,20.20
2019-05-01T09:44:57.642Z,20.80
2019-05-01T09:47:35.535Z,22.10
2019-05-01T09:50:07.294Z,20.30
2019-05-01T09:52:48.959Z,20.00
2019-05-01T09:55:24.910Z,20.00
2019-05-01T09:57:54.100Z,19.40
2019-05-01T10:00:33.039Z,18.00
2019-05-01T10:03:04.855Z,18.10
2019-05-01T10:08:52.237Z,17.50
2019-05-01T10:11:22.200Z,17.70
2019-05-01T10:13:53.642Z,18.60
2019-05-01T10:16:33.567Z,17.50
2019-05-01T10:19:11.530Z,18.40
2019-05-01T10:21:43.700Z,19.40
2019-05-01T10:24:18.633Z,20.30
2019-05-01T10:26:49.185Z,20.90
2019-05-01T10:29:25.867Z,21.30
2019-05-01T10:32:08.167Z,21.70
2019-05-01T10:34:50.263Z,21.70
2019-05-01T10:37:33.622Z,22.10
2019-05-01T10:40:03.548Z,21.10
2019-05-01T10:42:45.059Z,20.60
2019-05-01T10:45:32.917Z,20.50
2019-05-01T10:48:07.935Z,20.00
2019-05-01T10:50:40.186Z,20.80
2019-05-01T10:53:15.730Z,21.00
2019-05-01T10:55:53.280Z,21.10
2019-05-01T10:58:24.192Z,21.00
2019-05-01T11:01:31.223Z,20.80
2019-05-01T11:04:07.435Z,19.20
2019-05-01T11:06:37.954Z,20.00
2019-05-01T11:09:16.910Z,19.00
2019-05-01T11:11:51.698Z,17.60
2019-05-01T11:14:21.294Z,18.90
2019-05-01T11:17:01.057Z,20.10
2019-05-01T11:19:32.815Z,21.00
2019-05-01T11:22:01.440Z,22.10
2019-05-01T11:24:33.813Z,22.20
2019-05-01T11:27:08.519Z,22.20
2019-05-01T11:29:39.438Z,22.20
2019-05-01T11:32:21.470Z,21.30
2019-05-01T11:35:07.750Z,20.60
2019-05-01T11:38:03.765Z,18.50
2019-05-01T11:40:34.617Z,18.00
2019-05-01T11:43:05.497Z,17.50
2019-05-01T11:45:37.486Z,18.20
2019-05-01T11:48:19.674Z,18.50
2019-05-01T11:50:48.265Z,18.40
2019-05-01T11:53:24.715Z,18.00
2019-05-01T11:55:53.315Z,17.80
2019-05-01T11:58:37.596Z,18.20
2019-05-01T12:01:08.215Z,18.50
2019-05-01T12:03:39.528Z,18.20
2019-05-01T12:06:22.400Z,17.40
2019-05-01T12:08:47.313Z,17.20
2019-05-01T12:11:25.586Z,17.30
2019-05-01T12:13:57.941Z,17.90
2019-05-01T12:16:54.620Z,19.10
2019-05-01T12:19:34.232Z,19.40
2019-05-01T12:22:05.900Z,19.40
2019-05-01T12:24:55.131Z,20.10
2019-05-01T12:27:28.768Z,20.20
2019-05-01T12:30:07.934Z,19.30
2019-05-01T12:32:50.576Z,18.10
2019-05-01T12:35:21.299Z,17.80
2019-05-01T12:37:59.953Z,17.70
2019-05-01T12:40:34.945Z,17.30
2019-05-01T12:43:07.182Z,17.20
2019-05-01T12:45:36.059Z,17.10
2019-05-01T12:48:05.850Z,17.80
2019-05-01T12:50:50.165Z,18.80
2019-05-01T12:56:15.902Z,20.40
2019-05-01T12:58:57.817Z,20.40
2019-05-01T13:01:26.639Z,20.20
2019-05-01T13:03:55.414Z,18.60
2019-05-01T13:06:24.015Z,19.20
2019-05-01T13:09:07.739Z,18.80
2019-05-01T13:11:47.204Z,18.50
2019-05-01T13:14:15.983Z,18.80
2019-05-01T13:17:12.576Z,19.40
2019-05-01T13:19:59.299Z,19.10
2019-05-01T13:22:30.523Z,19.20
2019-05-01T13:25:10.314Z,19.60
2019-05-01T13:27:51.807Z,18.20
2019-05-01T13:30:40.502Z,17.90
2019-05-01T13:33:10.051Z,18.20
2019-05-01T13:35:39.419Z,18.80
2019-05-01T13:38:09.178Z,18.30
2019-05-01T13:40:37.885Z,18.10
2019-05-01T13:43:06.712Z,18.00
2019-05-01T13:45:35.446Z,18.60
2019-05-01T13:48:04.260Z,19.00
2019-05-01T13:50:32.857Z,19.40
2019-05-01T13:53:01.972Z,19.10
2019-05-01T13:55:31.236Z,19.10
2019-05-01T13:58:03.852Z,19.00
2019-05-01T14:00:32.876Z,18.30
2019-05-01T14:03:01.492Z,18.50
2019-05-01T14:05:30.214Z,19.00
2019-05-01T14:08:01.050Z,18.90
2019-05-01T14:10:30.360Z,19.20
2019-05-01T14:12:58.955Z,19.20
2019-05-01T14:15:31.325Z,18.60
2019-05-01T14:18:00.375Z,18.50
2019-05-01T14:20:34.736Z,18.30
2019-05-01T14:23:13.992Z,18.70
2019-05-01T14:26:00.750Z,19.00
2019-05-01T14:28:29.356Z,19.20
2019-05-01T14:30:58.201Z,19.10
2019-05-01T14:33:26.786Z,19.40
2019-05-01T14:35:55.406Z,19.20
2019-05-01T14:38:24.213Z,19.50
2019-05-01T14:40:53.242Z,19.80
2019-05-01T14:43:22.110Z,18.10
2019-05-01T14:45:50.800Z,17.80
2019-05-01T14:48:19.648Z,17.30
2019-05-01T14:50:48.443Z,17.60
2019-05-01T14:53:17.031Z,17.50
2019-05-01T14:55:45.752Z,17.70
2019-05-01T14:58:14.362Z,18.20
2019-05-01T15:00:43.014Z,18.40
2019-05-01T15:03:13.002Z,18.80
2019-05-01T15:05:41.686Z,18.70
2019-05-01T15:08:10.371Z,18.80
2019-05-01T15:10:39.286Z,19.00
2019-05-01T15:13:12.399Z,19.10
2019-05-01T15:16:00.759Z,19.30
2019-05-01T15:18:47.179Z,19.20
2019-05-01T15:21:16.417Z,19.40
2019-05-01T15:23:53.376Z,19.30
2019-05-01T15:26:15.323Z,17.90
2019-05-01T15:28:44.274Z,17.90
2019-05-01T15:31:13.160Z,17.80
2019-05-01T15:33:47.906Z,18.00
2019-05-01T15:36:17.822Z,18.40
2019-05-01T15:38:53.166Z,18.70
2019-05-01T15:41:27.306Z,18.50
2019-05-01T15:44:03.758Z,18.30
2019-05-01T15:46:37.405Z,18.10
2019-05-01T15:49:06.305Z,18.10
2019-05-01T15:51:35.306Z,18.10
2019-05-01T15:54:34.304Z,17.70
2019-05-01T15:57:14.935Z,17.40
2019-05-01T15:59:43.554Z,17.30
2019-05-01T16:02:24.420Z,17.70
2019-05-01T16:04:54.078Z,17.90
2019-05-01T16:07:27.945Z,17.90
2019-05-01T16:09:59.702Z,17.80
2019-05-01T16:12:29.971Z,17.50
2019-05-01T16:14:58.602Z,17.40
2019-05-01T16:17:28.834Z,17.40
2019-05-01T16:20:35.255Z,17.70
2019-05-01T16:23:04.036Z,17.90
2019-05-01T16:25:32.839Z,18.30
2019-05-01T16:28:06.011Z,18.50
2019-05-01T16:30:40.866Z,18.00
2019-05-01T16:33:09.593Z,17.60
2019-05-01T16:35:44.175Z,17.80
2019-05-01T16:38:23.202Z,17.90
2019-05-01T16:40:54.904Z,17.40
2019-05-01T16:43:23.746Z,17.30
2019-05-01T16:45:59.783Z,17.60
2019-05-01T16:48:34.297Z,17.60
2019-05-01T16:51:04.931Z,17.30
2019-05-01T16:53:33.684Z,16.50
2019-05-01T16:56:05.335Z,16.30
2019-05-01T16:58:35.410Z,16.00
2019-05-01T17:01:07.755Z,15.90
2019-05-01T17:03:48.972Z,15.70
2019-05-01T17:06:20.941Z,15.60
2019-05-01T17:08:54.740Z,15.50
2019-05-01T17:11:28.447Z,15.30
2019-05-01T17:14:02.830Z,15.30
2019-05-01T17:16:31.902Z,15.50
2019-05-01T17:19:04.168Z,15.70
2019-05-01T17:21:32.952Z,15.90
2019-05-01T17:24:08.486Z,15.90
2019-05-01T17:26:47.870Z,15.70
2019-05-01T17:29:23.416Z,15.60
2019-05-01T17:31:58.031Z,15.30
2019-05-01T17:34:42.055Z,14.90
2019-05-01T17:37:10.815Z,14.80
2019-05-01T17:39:39.503Z,14.50
2019-05-01T17:42:18.344Z,14.50
2019-05-01T17:44:47.179Z,14.60
2019-05-01T17:47:17.861Z,14.70
2019-05-01T17:49:47.198Z,14.60
2019-05-01T17:52:16.013Z,14.70
2019-05-01T17:54:47.287Z,14.90
2019-05-01T17:57:15.936Z,14.80
2019-05-01T17:59:48.993Z,14.50
2019-05-01T18:02:22.260Z,14.30
2019-05-01T18:05:15.683Z,14.40
2019-05-01T18:07:45.464Z,14.40
2019-05-01T18:10:29.505Z,13.80
2019-05-01T18:13:07.608Z,13.80
2019-05-01T18:15:43.818Z,14.00
2019-05-01T18:18:15.102Z,14.00
2019-05-01T18:20:43.225Z,13.60
2019-05-01T18:23:13.531Z,13.20
2019-05-01T18:25:48.187Z,13.20
2019-05-01T18:28:31.748Z,13.10
2019-05-01T18:31:00.619Z,13.00
2019-05-01T18:33:29.413Z,13.00
2019-05-01T18:36:02.655Z,13.10
2019-05-01T18:38:37.994Z,12.80
2019-05-01T18:41:19.993Z,12.70
2019-05-01T18:43:48.897Z,12.50
2019-05-01T18:46:17.775Z,12.30
2019-05-01T18:48:46.553Z,12.10
2019-05-01T18:51:16.408Z,12.20
2019-05-01T18:54:00.024Z,12.30
2019-05-01T18:56:41.030Z,12.10
2019-05-01T18:59:15.759Z,12.10
2019-05-01T19:01:48.505Z,12.10
2019-05-01T19:04:23.453Z,12.00
2019-05-01T19:06:56.150Z,11.80
2019-05-01T19:09:30.172Z,11.80
2019-05-01T19:11:56.161Z,11.80
2019-05-01T19:14:28.797Z,11.70
2019-05-01T19:17:04.996Z,11.70
2019-05-01T19:19:40.989Z,11.50
2019-05-01T19:22:34.766Z,11.30
2019-05-01T19:25:10.937Z,11.40
2019-05-01T19:27:45.906Z,11.30
2019-05-01T19:30:16.853Z,11.30
2019-05-01T19:32:55.579Z,11.50
2019-05-01T19:35:34.347Z,11.20
2019-05-01T19:38:03.234Z,11.10
2019-05-01T19:40:32.815Z,11.10
2019-05-01T19:43:14.435Z,10.90
2019-05-01T19:45:45.817Z,10.70
2019-05-01T19:48:20.491Z,10.60
2019-05-01T19:50:55.227Z,10.70
2019-05-01T19:53:29.063Z,10.70
2019-05-01T19:56:06.122Z,10.90
2019-05-01T19:58:37.594Z,11.00
2019-05-01T20:01:18.702Z,11.00
2019-05-01T20:03:47.483Z,11.00
2019-05-01T20:06:16.246Z,10.90
2019-05-01T20:08:44.883Z,10.80
2019-05-01T20:11:13.647Z,10.70
2019-05-01T20:13:42.353Z,10.70
2019-05-01T20:16:11.470Z,10.60
2019-05-01T20:18:40.227Z,10.50
2019-05-01T20:21:11.440Z,10.40
2019-05-01T20:23:40.952Z,10.40
2019-05-01T20:26:11.536Z,10.40
2019-05-01T20:28:40.114Z,10.30
2019-05-01T20:31:08.699Z,10.30
2019-05-01T20:33:42.354Z,10.30
2019-05-01T20:36:08.557Z,10.30
2019-05-01T20:38:37.200Z,10.20
2019-05-01T20:41:10.166Z,10.00
2019-05-01T20:43:38.153Z,10.00
2019-05-01T20:46:07.046Z,9.90
2019-05-01T20:48:35.928Z,9.80
2019-05-01T20:51:04.747Z,9.70
2019-05-01T20:53:33.431Z,9.60
2019-05-01T20:56:06.627Z,9.50
2019-05-01T20:58:35.248Z,9.40
2019-05-01T21:01:04.303Z,9.40
2019-05-01T21:03:32.993Z,9.40
2019-05-01T21:06:07.929Z,9.40
2019-05-01T21:08:53.223Z,9.40
2019-05-01T21:11:23.569Z,9.30
2019-05-01T21:13:56.700Z,9.40
2019-05-01T21:16:22.504Z,9.40
2019-05-01T21:18:51.183Z,9.30
2019-05-01T21:21:24.071Z,9.10
2019-05-01T21:23:56.428Z,9.00
2019-05-01T21:26:23.469Z,9.00
2019-05-01T21:28:53.986Z,8.90
2019-05-01T21:31:24.029Z,8.80
2019-05-01T21:33:53.563Z,9.00
2019-05-01T21:36:22.398Z,9.10
2019-05-01T21:38:50.982Z,9.00
2019-05-01T21:41:19.618Z,9.00
2019-05-01T21:43:48.321Z,8.90
2019-05-01T21:46:16.878Z,8.90
2019-05-01T21:48:45.659Z,8.80
2019-05-01T21:51:14.404Z,8.80
2019-05-01T21:53:46.350Z,8.90
2019-05-01T21:56:13.433Z,8.80
2019-05-01T21:58:45.155Z,8.60
2019-05-01T22:01:13.639Z,8.50
2019-05-01T22:03:42.266Z,8.50
2019-05-01T22:06:15.073Z,8.60
2019-05-01T22:08:41.271Z,8.60
2019-05-01T22:11:09.923Z,8.70
2019-05-01T22:13:38.541Z,8.70
2019-05-01T22:16:08.938Z,8.60
2019-05-01T22:18:39.186Z,8.50
2019-05-01T22:21:18.215Z,8.50
2019-05-01T22:24:04.624Z,8.40
2019-05-01T22:26:34.832Z,8.40
2019-05-01T22:29:14.248Z,8.40
2019-05-01T22:31:52.799Z,8.20
2019-05-01T22:34:40.397Z,8.20
2019-05-01T22:37:09.444Z,8.30
2019-05-01T22:39:39.715Z,8.10
2019-05-01T22:42:08.500Z,8.10
2019-05-01T22:44:37.172Z,8.00
2019-05-01T22:47:10.153Z,8.00
2019-05-01T22:49:36.508Z,7.80
2019-05-01T22:52:05.264Z,7.70
2019-05-01T22:54:33.929Z,7.60
2019-05-01T22:57:02.527Z,7.70
2019-05-01T22:59:31.119Z,7.90
2019-05-01T23:02:07.147Z,8.00
2019-05-01T23:04:35.790Z,7.90
2019-05-01T23:07:04.502Z,7.90
2019-05-01T23:09:33.495Z,8.00
2019-05-01T23:12:02.134Z,8.00
2019-05-01T23:14:31.122Z,7.90
2019-05-01T23:17:05.220Z,7.80
2019-05-01T23:19:33.927Z,7.70
2019-05-01T23:22:02.606Z,7.60
2019-05-01T23:24:31.225Z,7.30
2019-05-01T23:27:00.079Z,7.40
2019-05-01T23:29:34.497Z,7.50
2019-05-01T23:32:03.724Z,7.50
2019-05-01T23:34:32.315Z,7.60
2019-05-01T23:37:00.934Z,7.60
2019-05-01T23:39:29.653Z,7.60
2019-05-01T23:41:58.343Z,7.70
2019-05-01T23:44:42.958Z,7.70
2019-05-01T23:47:08.644Z,7.60
2019-05-01T23:49:37.246Z,7.60
2019-05-01T23:52:05.964Z,7.70
2019-05-01T23:54:34.620Z,7.70
2019-05-01T23:57:03.219Z,7.60
2019-05-01T23:59:31.910Z,7.50
